sensor_id;sensor_type;location;lat;lon;timestamp;P1;durP1;ratioP1;P2;durP2;ratioP2
6177;SDS011;3122;48.208;11.174;2023-06-22T00:01:54;10.90;;;6.63;;
6177;SDS011;3122;48.208;11.174;2023-06-22T00:06:54;11.30;;;6.97;;
6177;SDS011;3122;48.208;11.174;2023-06-22T00:11:55;9.87;;;6.67;;
6177;SDS011;3122;48.208;11.174;2023-06-22T00:16:55;10.20;;;6.40;;
6177;SDS011;3122;48.208;11.174;2023-06-22T00:21:58;9.20;;;6.27;;
6177;SDS011;3122;48.208;11.174;2023-06-22T00:27:00;13.43;;;6.13;;
6177;SDS011;3122;48.208;11.174;2023-06-22T00:32:00;11.77;;;6.40;;
6177;SDS011;3122;48.208;11.174;2023-06-22T00:37:01;8.07;;;6.27;;
6177;SDS011;3122;48.208;11.174;2023-06-22T00:42:02;10.93;;;6.10;;
6177;SDS011;3122;48.208;11.174;2023-06-22T00:47:03;13.10;;;6.80;;
6177;SDS011;3122;48.208;11.174;2023-06-22T00:52:04;12.63;;;6.17;;
6177;SDS011;3122;48.208;11.174;2023-06-22T00:57:13;9.63;;;5.80;;
6177;SDS011;3122;48.208;11.174;2023-06-22T01:02:15;7.37;;;5.80;;
6177;SDS011;3122;48.208;11.174;2023-06-22T01:12:38;8.47;;;5.33;;
6177;SDS011;3122;48.208;11.174;2023-06-22T01:17:44;8.27;;;5.20;;
6177;SDS011;3122;48.208;11.174;2023-06-22T01:33:07;8.60;;;5.40;;
6177;SDS011;3122;48.208;11.174;2023-06-22T01:38:11;10.33;;;6.00;;
6177;SDS011;3122;48.208;11.174;2023-06-22T01:43:12;9.00;;;6.17;;
6177;SDS011;3122;48.208;11.174;2023-06-22T01:48:13;9.70;;;6.00;;
6177;SDS011;3122;48.208;11.174;2023-06-22T01:53:13;10.37;;;5.77;;
6177;SDS011;3122;48.208;11.174;2023-06-22T01:58:14;12.17;;;5.70;;
6177;SDS011;3122;48.208;11.174;2023-06-22T02:03:19;12.27;;;6.00;;
6177;SDS011;3122;48.208;11.174;2023-06-22T02:08:24;9.33;;;5.77;;
6177;SDS011;3122;48.208;11.174;2023-06-22T02:13:28;8.57;;;6.53;;
6177;SDS011;3122;48.208;11.174;2023-06-22T02:18:29;8.17;;;6.07;;
6177;SDS011;3122;48.208;11.174;2023-06-22T02:23:30;9.30;;;5.80;;
6177;SDS011;3122;48.208;11.174;2023-06-22T02:28:32;11.37;;;6.87;;
6177;SDS011;3122;48.208;11.174;2023-06-22T02:33:33;9.43;;;6.50;;
6177;SDS011;3122;48.208;11.174;2023-06-22T02:38:34;8.13;;;6.10;;
6177;SDS011;3122;48.208;11.174;2023-06-22T02:43:36;9.00;;;6.80;;
6177;SDS011;3122;48.208;11.174;2023-06-22T02:48:36;8.70;;;6.23;;
6177;SDS011;3122;48.208;11.174;2023-06-22T02:53:37;10.77;;;6.60;;
6177;SDS011;3122;48.208;11.174;2023-06-22T02:58:37;11.13;;;6.93;;
6177;SDS011;3122;48.208;11.174;2023-06-22T03:03:39;13.10;;;6.83;;
6177;SDS011;3122;48.208;11.174;2023-06-22T03:08:40;9.00;;;6.43;;
6177;SDS011;3122;48.208;11.174;2023-06-22T03:13:41;10.80;;;6.40;;
6177;SDS011;3122;48.208;11.174;2023-06-22T03:18:42;10.60;;;7.00;;
6177;SDS011;3122;48.208;11.174;2023-06-22T03:23:42;10.30;;;7.10;;
6177;SDS011;3122;48.208;11.174;2023-06-22T03:28:43;11.63;;;7.17;;
6177;SDS011;3122;48.208;11.174;2023-06-22T03:33:44;9.80;;;6.60;;
6177;SDS011;3122;48.208;11.174;2023-06-22T03:38:45;12.13;;;6.60;;
6177;SDS011;3122;48.208;11.174;2023-06-22T03:43:46;15.87;;;6.97;;
6177;SDS011;3122;48.208;11.174;2023-06-22T03:48:47;13.33;;;7.37;;
6177;SDS011;3122;48.208;11.174;2023-06-22T03:53:47;15.40;;;6.97;;
6177;SDS011;3122;48.208;11.174;2023-06-22T03:58:48;14.80;;;6.50;;
6177;SDS011;3122;48.208;11.174;2023-06-22T04:03:48;10.80;;;7.00;;
6177;SDS011;3122;48.208;11.174;2023-06-22T04:08:49;14.40;;;7.50;;
6177;SDS011;3122;48.208;11.174;2023-06-22T04:13:51;10.33;;;7.20;;
6177;SDS011;3122;48.208;11.174;2023-06-22T04:18:51;10.20;;;7.60;;
6177;SDS011;3122;48.208;11.174;2023-06-22T04:23:52;12.13;;;7.20;;
6177;SDS011;3122;48.208;11.174;2023-06-22T04:28:52;11.37;;;7.33;;
6177;SDS011;3122;48.208;11.174;2023-06-22T04:33:55;12.37;;;6.90;;
6177;SDS011;3122;48.208;11.174;2023-06-22T04:38:56;13.13;;;7.67;;
6177;SDS011;3122;48.208;11.174;2023-06-22T04:43:57;13.80;;;7.57;;
6177;SDS011;3122;48.208;11.174;2023-06-22T04:48:59;15.57;;;7.40;;
6177;SDS011;3122;48.208;11.174;2023-06-22T04:54:00;13.87;;;7.73;;
6177;SDS011;3122;48.208;11.174;2023-06-22T04:59:01;14.60;;;8.10;;
6177;SDS011;3122;48.208;11.174;2023-06-22T05:04:03;9.77;;;7.00;;
6177;SDS011;3122;48.208;11.174;2023-06-22T05:09:05;11.07;;;7.73;;
6177;SDS011;3122;48.208;11.174;2023-06-22T05:14:06;14.27;;;7.47;;
6177;SDS011;3122;48.208;11.174;2023-06-22T05:19:07;18.67;;;8.37;;
6177;SDS011;3122;48.208;11.174;2023-06-22T05:24:08;14.47;;;7.63;;
6177;SDS011;3122;48.208;11.174;2023-06-22T05:29:08;13.87;;;7.13;;
6177;SDS011;3122;48.208;11.174;2023-06-22T05:34:09;16.87;;;8.47;;
6177;SDS011;3122;48.208;11.174;2023-06-22T05:39:13;11.17;;;7.60;;
6177;SDS011;3122;48.208;11.174;2023-06-22T05:44:14;13.47;;;8.40;;
6177;SDS011;3122;48.208;11.174;2023-06-22T05:49:15;13.60;;;7.37;;
6177;SDS011;3122;48.208;11.174;2023-06-22T05:54:16;15.07;;;8.80;;
6177;SDS011;3122;48.208;11.174;2023-06-22T05:59:17;13.30;;;8.00;;
6177;SDS011;3122;48.208;11.174;2023-06-22T06:04:18;11.80;;;7.50;;
6177;SDS011;3122;48.208;11.174;2023-06-22T06:09:19;19.30;;;8.70;;
6177;SDS011;3122;48.208;11.174;2023-06-22T06:14:20;11.87;;;7.73;;
6177;SDS011;3122;48.208;11.174;2023-06-22T06:19:21;12.20;;;7.73;;
6177;SDS011;3122;48.208;11.174;2023-06-22T06:24:21;10.13;;;7.83;;
6177;SDS011;3122;48.208;11.174;2023-06-22T06:29:22;15.03;;;7.20;;
6177;SDS011;3122;48.208;11.174;2023-06-22T06:34:23;10.90;;;8.10;;
6177;SDS011;3122;48.208;11.174;2023-06-22T06:39:24;20.00;;;8.67;;
6177;SDS011;3122;48.208;11.174;2023-06-22T06:44:25;12.70;;;8.70;;
6177;SDS011;3122;48.208;11.174;2023-06-22T06:49:25;13.70;;;7.60;;
6177;SDS011;3122;48.208;11.174;2023-06-22T06:54:26;15.67;;;9.20;;
6177;SDS011;3122;48.208;11.174;2023-06-22T06:59:27;13.77;;;8.63;;
6177;SDS011;3122;48.208;11.174;2023-06-22T07:04:29;9.57;;;7.93;;
6177;SDS011;3122;48.208;11.174;2023-06-22T07:09:29;19.10;;;8.47;;
6177;SDS011;3122;48.208;11.174;2023-06-22T07:14:30;14.73;;;8.57;;
6177;SDS011;3122;48.208;11.174;2023-06-22T07:19:32;16.23;;;8.07;;
6177;SDS011;3122;48.208;11.174;2023-06-22T07:24:33;14.70;;;8.40;;
6177;SDS011;3122;48.208;11.174;2023-06-22T07:29:34;18.13;;;8.60;;
6177;SDS011;3122;48.208;11.174;2023-06-22T07:34:35;14.97;;;7.80;;
6177;SDS011;3122;48.208;11.174;2023-06-22T07:39:36;13.57;;;7.90;;
6177;SDS011;3122;48.208;11.174;2023-06-22T07:44:37;18.97;;;8.17;;
6177;SDS011;3122;48.208;11.174;2023-06-22T07:49:38;16.53;;;8.37;;
6177;SDS011;3122;48.208;11.174;2023-06-22T07:54:39;12.80;;;8.17;;
6177;SDS011;3122;48.208;11.174;2023-06-22T07:59:39;20.30;;;8.07;;
6177;SDS011;3122;48.208;11.174;2023-06-22T08:04:40;12.87;;;8.70;;
6177;SDS011;3122;48.208;11.174;2023-06-22T08:09:45;14.77;;;8.80;;
6177;SDS011;3122;48.208;11.174;2023-06-22T08:14:47;11.30;;;8.27;;
6177;SDS011;3122;48.208;11.174;2023-06-22T08:19:48;16.43;;;8.50;;
6177;SDS011;3122;48.208;11.174;2023-06-22T08:24:49;14.93;;;8.67;;
6177;SDS011;3122;48.208;11.174;2023-06-22T08:29:49;18.70;;;8.80;;
6177;SDS011;3122;48.208;11.174;2023-06-22T08:34:52;14.90;;;9.47;;
6177;SDS011;3122;48.208;11.174;2023-06-22T08:39:53;17.07;;;8.60;;
6177;SDS011;3122;48.208;11.174;2023-06-22T08:44:53;13.87;;;8.40;;
6177;SDS011;3122;48.208;11.174;2023-06-22T08:49:55;14.97;;;8.30;;
6177;SDS011;3122;48.208;11.174;2023-06-22T08:54:56;14.27;;;8.53;;
6177;SDS011;3122;48.208;11.174;2023-06-22T08:59:58;15.17;;;9.00;;
6177;SDS011;3122;48.208;11.174;2023-06-22T09:04:59;12.07;;;8.60;;
6177;SDS011;3122;48.208;11.174;2023-06-22T09:10:03;16.77;;;8.73;;
6177;SDS011;3122;48.208;11.174;2023-06-22T09:15:07;19.07;;;9.93;;
6177;SDS011;3122;48.208;11.174;2023-06-22T09:20:08;16.63;;;8.90;;
6177;SDS011;3122;48.208;11.174;2023-06-22T09:25:10;12.70;;;8.60;;
6177;SDS011;3122;48.208;11.174;2023-06-22T09:30:11;21.30;;;9.30;;
6177;SDS011;3122;48.208;11.174;2023-06-22T09:35:12;15.80;;;8.97;;
6177;SDS011;3122;48.208;11.174;2023-06-22T09:40:13;19.00;;;9.60;;
6177;SDS011;3122;48.208;11.174;2023-06-22T09:45:16;15.87;;;8.17;;
6177;SDS011;3122;48.208;11.174;2023-06-22T09:50:17;24.73;;;9.97;;
6177;SDS011;3122;48.208;11.174;2023-06-22T09:55:17;19.63;;;9.60;;
6177;SDS011;3122;48.208;11.174;2023-06-22T10:00:18;20.40;;;8.30;;
6177;SDS011;3122;48.208;11.174;2023-06-22T10:05:19;18.97;;;8.33;;
6177;SDS011;3122;48.208;11.174;2023-06-22T10:10:19;16.07;;;9.00;;
6177;SDS011;3122;48.208;11.174;2023-06-22T10:15:20;14.50;;;8.90;;
6177;SDS011;3122;48.208;11.174;2023-06-22T10:20:21;17.30;;;8.83;;
6177;SDS011;3122;48.208;11.174;2023-06-22T10:25:22;16.77;;;8.40;;
6177;SDS011;3122;48.208;11.174;2023-06-22T10:30:23;13.13;;;8.43;;
6177;SDS011;3122;48.208;11.174;2023-06-22T10:35:23;17.73;;;9.37;;
6177;SDS011;3122;48.208;11.174;2023-06-22T10:40:24;21.50;;;9.30;;
6177;SDS011;3122;48.208;11.174;2023-06-22T10:45:24;20.30;;;8.20;;
6177;SDS011;3122;48.208;11.174;2023-06-22T10:50:25;20.17;;;8.97;;
6177;SDS011;3122;48.208;11.174;2023-06-22T10:55:26;16.17;;;8.80;;
6177;SDS011;3122;48.208;11.174;2023-06-22T11:00:26;21.40;;;8.90;;
6177;SDS011;3122;48.208;11.174;2023-06-22T11:05:27;15.83;;;8.33;;
6177;SDS011;3122;48.208;11.174;2023-06-22T11:10:27;15.83;;;8.53;;
6177;SDS011;3122;48.208;11.174;2023-06-22T11:15:28;17.10;;;8.30;;
6177;SDS011;3122;48.208;11.174;2023-06-22T11:20:28;16.70;;;8.77;;
6177;SDS011;3122;48.208;11.174;2023-06-22T11:25:29;16.60;;;8.03;;
6177;SDS011;3122;48.208;11.174;2023-06-22T11:30:30;16.10;;;9.03;;
6177;SDS011;3122;48.208;11.174;2023-06-22T11:35:31;20.30;;;8.20;;
6177;SDS011;3122;48.208;11.174;2023-06-22T11:40:31;16.57;;;8.37;;
6177;SDS011;3122;48.208;11.174;2023-06-22T11:45:32;16.73;;;8.43;;
6177;SDS011;3122;48.208;11.174;2023-06-22T11:50:32;16.87;;;8.40;;
6177;SDS011;3122;48.208;11.174;2023-06-22T11:55:35;12.73;;;8.00;;
6177;SDS011;3122;48.208;11.174;2023-06-22T12:00:36;16.03;;;8.03;;
6177;SDS011;3122;48.208;11.174;2023-06-22T12:05:38;14.20;;;8.10;;
6177;SDS011;3122;48.208;11.174;2023-06-22T12:10:38;14.27;;;8.13;;
6177;SDS011;3122;48.208;11.174;2023-06-22T12:15:39;14.80;;;8.53;;
6177;SDS011;3122;48.208;11.174;2023-06-22T12:20:39;21.63;;;9.00;;
6177;SDS011;3122;48.208;11.174;2023-06-22T12:25:40;18.53;;;8.27;;
6177;SDS011;3122;48.208;11.174;2023-06-22T12:30:41;26.37;;;8.20;;
6177;SDS011;3122;48.208;11.174;2023-06-22T12:35:41;16.27;;;8.70;;
6177;SDS011;3122;48.208;11.174;2023-06-22T12:40:42;14.87;;;8.13;;
6177;SDS011;3122;48.208;11.174;2023-06-22T12:45:42;14.20;;;8.20;;
6177;SDS011;3122;48.208;11.174;2023-06-22T12:50:43;13.73;;;7.60;;
6177;SDS011;3122;48.208;11.174;2023-06-22T12:55:43;14.03;;;8.83;;
6177;SDS011;3122;48.208;11.174;2023-06-22T13:00:44;10.57;;;7.40;;
6177;SDS011;3122;48.208;11.174;2023-06-22T13:05:44;19.43;;;8.30;;
6177;SDS011;3122;48.208;11.174;2023-06-22T13:10:45;18.13;;;8.63;;
6177;SDS011;3122;48.208;11.174;2023-06-22T13:15:46;15.20;;;8.50;;
6177;SDS011;3122;48.208;11.174;2023-06-22T13:20:46;20.83;;;8.40;;
6177;SDS011;3122;48.208;11.174;2023-06-22T13:25:47;14.47;;;9.30;;
6177;SDS011;3122;48.208;11.174;2023-06-22T13:30:47;8.77;;;6.87;;
6177;SDS011;3122;48.208;11.174;2023-06-22T13:35:48;14.53;;;8.10;;
6177;SDS011;3122;48.208;11.174;2023-06-22T13:40:49;24.37;;;9.17;;
6177;SDS011;3122;48.208;11.174;2023-06-22T13:45:50;15.10;;;7.87;;
6177;SDS011;3122;48.208;11.174;2023-06-22T13:50:50;17.30;;;8.20;;
6177;SDS011;3122;48.208;11.174;2023-06-22T13:55:51;13.33;;;8.50;;
6177;SDS011;3122;48.208;11.174;2023-06-22T14:00:52;15.27;;;8.40;;
6177;SDS011;3122;48.208;11.174;2023-06-22T14:05:52;13.67;;;8.17;;
6177;SDS011;3122;48.208;11.174;2023-06-22T14:10:55;22.73;;;8.77;;
6177;SDS011;3122;48.208;11.174;2023-06-22T14:15:56;17.43;;;8.47;;
6177;SDS011;3122;48.208;11.174;2023-06-22T14:20:56;17.87;;;8.70;;
6177;SDS011;3122;48.208;11.174;2023-06-22T14:25:57;20.10;;;9.40;;
6177;SDS011;3122;48.208;11.174;2023-06-22T14:30:57;21.97;;;8.17;;
6177;SDS011;3122;48.208;11.174;2023-06-22T14:35:58;18.17;;;9.50;;
6177;SDS011;3122;48.208;11.174;2023-06-22T14:40:58;14.67;;;8.60;;
6177;SDS011;3122;48.208;11.174;2023-06-22T14:45:59;17.40;;;8.30;;
6177;SDS011;3122;48.208;11.174;2023-06-22T14:51:00;15.93;;;7.60;;
6177;SDS011;3122;48.208;11.174;2023-06-22T14:56:01;23.57;;;8.37;;
6177;SDS011;3122;48.208;11.174;2023-06-22T15:01:02;15.20;;;7.77;;
6177;SDS011;3122;48.208;11.174;2023-06-22T15:06:03;12.87;;;7.90;;
6177;SDS011;3122;48.208;11.174;2023-06-22T15:11:04;12.80;;;5.90;;
6177;SDS011;3122;48.208;11.174;2023-06-22T15:16:05;17.60;;;6.23;;
6177;SDS011;3122;48.208;11.174;2023-06-22T15:21:05;16.13;;;6.47;;
6177;SDS011;3122;48.208;11.174;2023-06-22T15:26:07;21.70;;;7.03;;
6177;SDS011;3122;48.208;11.174;2023-06-22T15:31:07;23.80;;;6.50;;
6177;SDS011;3122;48.208;11.174;2023-06-22T15:36:08;22.27;;;7.30;;
6177;SDS011;3122;48.208;11.174;2023-06-22T15:41:09;15.13;;;6.93;;
6177;SDS011;3122;48.208;11.174;2023-06-22T15:46:09;21.27;;;6.80;;
6177;SDS011;3122;48.208;11.174;2023-06-22T15:51:10;21.83;;;8.20;;
6177;SDS011;3122;48.208;11.174;2023-06-22T15:56:11;16.40;;;7.53;;
6177;SDS011;3122;48.208;11.174;2023-06-22T16:01:12;19.10;;;8.03;;
6177;SDS011;3122;48.208;11.174;2023-06-22T16:06:12;16.40;;;7.40;;
6177;SDS011;3122;48.208;11.174;2023-06-22T16:11:13;20.60;;;8.03;;
6177;SDS011;3122;48.208;11.174;2023-06-22T16:16:14;15.30;;;7.17;;
6177;SDS011;3122;48.208;11.174;2023-06-22T16:21:16;17.77;;;8.27;;
6177;SDS011;3122;48.208;11.174;2023-06-22T16:26:16;12.50;;;7.50;;
6177;SDS011;3122;48.208;11.174;2023-06-22T16:31:17;18.40;;;7.37;;
6177;SDS011;3122;48.208;11.174;2023-06-22T16:36:18;19.97;;;8.20;;
6177;SDS011;3122;48.208;11.174;2023-06-22T16:41:18;20.23;;;8.17;;
6177;SDS011;3122;48.208;11.174;2023-06-22T16:46:19;21.17;;;8.40;;
6177;SDS011;3122;48.208;11.174;2023-06-22T16:51:19;20.43;;;9.03;;
6177;SDS011;3122;48.208;11.174;2023-06-22T16:56:23;19.13;;;9.03;;
6177;SDS011;3122;48.208;11.174;2023-06-22T17:01:26;18.03;;;9.20;;
6177;SDS011;3122;48.208;11.174;2023-06-22T17:06:28;22.47;;;9.97;;
6177;SDS011;3122;48.208;11.174;2023-06-22T17:11:31;19.00;;;10.00;;
6177;SDS011;3122;48.208;11.174;2023-06-22T17:16:32;21.20;;;10.57;;
6177;SDS011;3122;48.208;11.174;2023-06-22T17:21:35;26.50;;;12.13;;
6177;SDS011;3122;48.208;11.174;2023-06-22T17:26:36;25.13;;;6.90;;
6177;SDS011;3122;48.208;11.174;2023-06-22T17:31:36;16.27;;;5.93;;
6177;SDS011;3122;48.208;11.174;2023-06-22T17:36:49;12.77;;;6.37;;
6177;SDS011;3122;48.208;11.174;2023-06-22T17:41:50;23.40;;;6.30;;
6177;SDS011;3122;48.208;11.174;2023-06-22T17:46:52;20.83;;;6.93;;
6177;SDS011;3122;48.208;11.174;2023-06-22T17:51:53;13.53;;;5.10;;
6177;SDS011;3122;48.208;11.174;2023-06-22T17:56:54;21.93;;;6.30;;
6177;SDS011;3122;48.208;11.174;2023-06-22T18:01:54;36.67;;;9.13;;
6177;SDS011;3122;48.208;11.174;2023-06-22T18:06:55;9.07;;;4.30;;
6177;SDS011;3122;48.208;11.174;2023-06-22T18:11:56;18.63;;;5.00;;
6177;SDS011;3122;48.208;11.174;2023-06-22T18:17:00;9.93;;;4.60;;
6177;SDS011;3122;48.208;11.174;2023-06-22T18:22:02;20.20;;;5.50;;
6177;SDS011;3122;48.208;11.174;2023-06-22T18:27:03;11.47;;;4.37;;
6177;SDS011;3122;48.208;11.174;2023-06-22T18:32:05;10.27;;;4.37;;
6177;SDS011;3122;48.208;11.174;2023-06-22T18:37:07;15.13;;;4.80;;
6177;SDS011;3122;48.208;11.174;2023-06-22T18:42:10;19.93;;;4.93;;
6177;SDS011;3122;48.208;11.174;2023-06-22T18:47:11;8.67;;;4.80;;
6177;SDS011;3122;48.208;11.174;2023-06-22T18:52:14;19.03;;;4.97;;
6177;SDS011;3122;48.208;11.174;2023-06-22T18:57:22;15.27;;;4.90;;
6177;SDS011;3122;48.208;11.174;2023-06-22T19:12:56;13.50;;;4.50;;
6177;SDS011;3122;48.208;11.174;2023-06-22T19:18:22;8.70;;;5.17;;
6177;SDS011;3122;48.208;11.174;2023-06-22T19:33:53;13.50;;;4.97;;
6177;SDS011;3122;48.208;11.174;2023-06-22T19:38:59;12.20;;;5.17;;
6177;SDS011;3122;48.208;11.174;2023-06-22T19:43:59;13.70;;;5.43;;
6177;SDS011;3122;48.208;11.174;2023-06-22T19:49:00;8.67;;;4.90;;
6177;SDS011;3122;48.208;11.174;2023-06-22T19:54:07;6.90;;;3.60;;
6177;SDS011;3122;48.208;11.174;2023-06-22T19:59:12;13.47;;;3.80;;
6177;SDS011;3122;48.208;11.174;2023-06-22T20:04:15;13.07;;;4.33;;
6177;SDS011;3122;48.208;11.174;2023-06-22T20:09:16;11.00;;;4.47;;
6177;SDS011;3122;48.208;11.174;2023-06-22T20:14:19;8.17;;;4.17;;
6177;SDS011;3122;48.208;11.174;2023-06-22T20:19:19;6.40;;;4.10;;
6177;SDS011;3122;48.208;11.174;2023-06-22T20:24:21;9.83;;;5.00;;
6177;SDS011;3122;48.208;11.174;2023-06-22T20:29:29;8.50;;;4.63;;
6177;SDS011;3122;48.208;11.174;2023-06-22T20:34:37;10.97;;;4.97;;
6177;SDS011;3122;48.208;11.174;2023-06-22T20:39:44;7.67;;;4.67;;
6177;SDS011;3122;48.208;11.174;2023-06-22T20:44:45;10.33;;;5.27;;
6177;SDS011;3122;48.208;11.174;2023-06-22T20:49:49;12.00;;;5.60;;
6177;SDS011;3122;48.208;11.174;2023-06-22T20:54:50;11.17;;;5.13;;
6177;SDS011;3122;48.208;11.174;2023-06-22T20:59:52;13.17;;;5.20;;
6177;SDS011;3122;48.208;11.174;2023-06-22T21:04:53;11.47;;;5.37;;
6177;SDS011;3122;48.208;11.174;2023-06-22T21:09:54;13.07;;;6.00;;
6177;SDS011;3122;48.208;11.174;2023-06-22T21:14:55;11.53;;;5.37;;
6177;SDS011;3122;48.208;11.174;2023-06-22T21:19:56;12.33;;;6.20;;
6177;SDS011;3122;48.208;11.174;2023-06-22T21:30:03;13.63;;;6.90;;
6177;SDS011;3122;48.208;11.174;2023-06-22T21:35:05;14.83;;;6.57;;
6177;SDS011;3122;48.208;11.174;2023-06-22T21:40:09;12.83;;;7.00;;
6177;SDS011;3122;48.208;11.174;2023-06-22T21:45:10;13.63;;;6.57;;
6177;SDS011;3122;48.208;11.174;2023-06-22T21:50:11;11.27;;;6.67;;
6177;SDS011;3122;48.208;11.174;2023-06-22T21:55:11;11.30;;;5.67;;
6177;SDS011;3122;48.208;11.174;2023-06-22T22:00:12;12.30;;;5.60;;
6177;SDS011;3122;48.208;11.174;2023-06-22T22:05:12;10.43;;;5.03;;
6177;SDS011;3122;48.208;11.174;2023-06-22T22:10:13;10.73;;;4.30;;
6177;SDS011;3122;48.208;11.174;2023-06-22T22:15:14;10.33;;;4.83;;
6177;SDS011;3122;48.208;11.174;2023-06-22T22:20:14;8.40;;;4.70;;
6177;SDS011;3122;48.208;11.174;2023-06-22T22:25:15;8.13;;;4.93;;
6177;SDS011;3122;48.208;11.174;2023-06-22T22:30:15;7.90;;;4.00;;
6177;SDS011;3122;48.208;11.174;2023-06-22T22:35:16;8.97;;;4.50;;
6177;SDS011;3122;48.208;11.174;2023-06-22T22:40:17;6.93;;;4.00;;
6177;SDS011;3122;48.208;11.174;2023-06-22T22:45:17;7.07;;;3.50;;
6177;SDS011;3122;48.208;11.174;2023-06-22T22:50:18;5.60;;;3.10;;
6177;SDS011;3122;48.208;11.174;2023-06-22T22:55:19;7.87;;;3.60;;
6177;SDS011;3122;48.208;11.174;2023-06-22T23:00:19;5.20;;;3.50;;
6177;SDS011;3122;48.208;11.174;2023-06-22T23:05:20;7.17;;;3.30;;
6177;SDS011;3122;48.208;11.174;2023-06-22T23:10:21;6.00;;;3.00;;
6177;SDS011;3122;48.208;11.174;2023-06-22T23:15:21;7.87;;;2.90;;
6177;SDS011;3122;48.208;11.174;2023-06-22T23:20:23;3.90;;;2.43;;
6177;SDS011;3122;48.208;11.174;2023-06-22T23:25:24;5.03;;;2.33;;
6177;SDS011;3122;48.208;11.174;2023-06-22T23:30:25;2.60;;;2.40;;
6177;SDS011;3122;48.208;11.174;2023-06-22T23:35:26;7.20;;;3.10;;
6177;SDS011;3122;48.208;11.174;2023-06-22T23:40:27;4.70;;;3.10;;
6177;SDS011;3122;48.208;11.174;2023-06-22T23:45:27;6.37;;;2.70;;
6177;SDS011;3122;48.208;11.174;2023-06-22T23:50:28;5.60;;;2.57;;
6177;SDS011;3122;48.208;11.174;2023-06-22T23:55:28;5.87;;;2.83;;
